createdAt,value
2019-03-22T00:02:53.621Z,46.63
2019-03-22T00:07:58.841Z,44.27
2019-03-22T00:13:05.051Z,47.90
2019-03-22T00:18:10.264Z,45.57
2019-03-22T00:23:15.582Z,49.90
2019-03-22T00:28:20.822Z,47.20
2019-03-22T00:33:26.029Z,45.77
2019-03-22T00:38:31.249Z,46.77
2019-03-22T00:43:36.547Z,52.40
2019-03-22T00:48:41.758Z,43.27
2019-03-22T00:53:46.981Z,51.53
2019-03-22T00:58:52.198Z,50.10
2019-03-22T01:03:57.496Z,46.07
2019-03-22T01:09:02.928Z,43.03
2019-03-22T01:14:09.203Z,49.03
2019-03-22T01:19:14.423Z,50.17
2019-03-22T01:24:19.720Z,55.27
2019-03-22T01:29:24.980Z,53.23
2019-03-22T01:34:30.179Z,49.27
2019-03-22T01:39:35.419Z,51.47
2019-03-22T01:44:40.694Z,48.10
2019-03-22T01:49:45.928Z,52.83
2019-03-22T01:54:51.170Z,54.67
2019-03-22T01:59:56.446Z,49.30
2019-03-22T02:05:01.855Z,57.20
2019-03-22T02:15:41.857Z,54.50
2019-03-22T02:20:47.086Z,54.30
2019-03-22T02:25:52.340Z,53.40
2019-03-22T02:30:57.575Z,51.80
2019-03-22T02:36:03.073Z,53.63
2019-03-22T02:41:08.275Z,51.80
2019-03-22T02:46:13.651Z,51.80
2019-03-22T02:51:19.859Z,48.37
2019-03-22T02:56:25.217Z,56.43
2019-03-22T03:01:30.651Z,51.73
2019-03-22T03:06:35.968Z,52.80
2019-03-22T03:11:41.358Z,48.77
2019-03-22T03:16:46.859Z,53.13
2019-03-22T03:21:52.340Z,49.50
2019-03-22T03:26:57.700Z,57.37
2019-03-22T03:32:02.971Z,49.50
2019-03-22T03:37:08.229Z,56.87
2019-03-22T03:42:13.390Z,52.17
2019-03-22T03:47:18.652Z,53.70
2019-03-22T03:52:23.950Z,60.80
2019-03-22T03:57:29.237Z,52.00
2019-03-22T04:02:34.461Z,52.27
2019-03-22T04:07:39.661Z,55.17
2019-03-22T04:12:44.958Z,60.77
2019-03-22T04:17:50.243Z,63.43
2019-03-22T04:22:55.492Z,58.70
2019-03-22T04:28:00.802Z,60.27
2019-03-22T04:33:06.919Z,73.83
2019-03-22T04:38:12.301Z,66.63
2019-03-22T04:43:17.529Z,62.20
2019-03-22T04:48:28.408Z,67.35
2019-03-22T04:53:38.022Z,67.50
2019-03-22T04:58:46.863Z,83.30
2019-03-22T05:03:53.618Z,80.33
2019-03-22T05:09:00.896Z,79.37
2019-03-22T05:14:07.685Z,74.97
2019-03-22T05:19:14.181Z,76.82
2019-03-22T05:24:22.077Z,80.03
2019-03-22T05:29:31.134Z,95.23
2019-03-22T05:34:36.633Z,91.57
2019-03-22T05:39:42.041Z,84.80
2019-03-22T05:44:47.515Z,89.40
2019-03-22T05:49:52.814Z,89.83
2019-03-22T05:54:58.263Z,86.67
2019-03-22T06:00:04.379Z,82.17
2019-03-22T06:05:09.917Z,79.30
2019-03-22T06:10:15.405Z,82.87
2019-03-22T06:15:20.606Z,81.87
2019-03-22T06:20:26.115Z,71.37
2019-03-22T06:25:31.567Z,74.30
2019-03-22T06:30:36.993Z,75.30
2019-03-22T06:35:42.331Z,77.90
2019-03-22T06:40:47.810Z,74.80
2019-03-22T06:45:53.369Z,80.63
2019-03-22T06:50:58.928Z,76.83
2019-03-22T06:56:05.408Z,78.00
2019-03-22T07:01:10.873Z,81.60
2019-03-22T07:06:16.331Z,76.50
2019-03-22T07:11:21.808Z,76.87
2019-03-22T07:16:27.258Z,75.53
2019-03-22T07:21:32.961Z,68.80
2019-03-22T07:26:38.606Z,73.97
2019-03-22T07:31:44.051Z,65.93
2019-03-22T07:36:49.739Z,65.90
2019-03-22T07:41:55.273Z,74.03
2019-03-22T07:47:00.726Z,67.63
2019-03-22T07:52:06.288Z,72.37
2019-03-22T07:57:12.230Z,65.37
2019-03-22T08:02:17.614Z,62.13
2019-03-22T08:07:23.019Z,69.20
2019-03-22T08:12:28.362Z,67.07
2019-03-22T08:17:33.734Z,73.47
2019-03-22T08:22:39.252Z,77.87
2019-03-22T08:27:44.770Z,69.43
2019-03-22T08:32:50.573Z,76.50
2019-03-22T08:37:56.016Z,72.43
2019-03-22T08:43:01.367Z,70.47
2019-03-22T08:48:06.639Z,81.00
2019-03-22T08:53:11.926Z,74.53
2019-03-22T08:58:18.781Z,72.90
2019-03-22T09:03:24.164Z,74.27
2019-03-22T09:08:29.484Z,77.58
2019-03-22T09:13:34.750Z,79.07
2019-03-22T09:18:40.011Z,69.03
2019-03-22T09:23:45.292Z,72.80
2019-03-22T09:28:50.494Z,70.70
2019-03-22T09:33:55.793Z,73.37
2019-03-22T09:39:05.798Z,71.97
2019-03-22T09:44:13.880Z,70.80
2019-03-22T09:49:19.160Z,71.67
2019-03-22T09:54:24.404Z,67.57
2019-03-22T09:59:29.671Z,70.30
2019-03-22T10:04:34.965Z,74.13
2019-03-22T10:09:40.474Z,60.67
2019-03-22T10:14:46.041Z,61.57
2019-03-22T10:19:51.534Z,64.30
2019-03-22T10:24:56.975Z,64.45
2019-03-22T10:30:02.824Z,65.80
2019-03-22T10:35:08.686Z,61.67
2019-03-22T10:40:14.500Z,58.00
2019-03-22T10:45:19.961Z,46.87
2019-03-22T10:50:25.460Z,54.33
2019-03-22T10:55:31.004Z,52.88
2019-03-22T11:00:36.450Z,53.50
2019-03-22T11:05:41.677Z,59.85
2019-03-22T11:10:46.895Z,65.17
2019-03-22T11:15:52.160Z,58.87
2019-03-22T11:21:05.101Z,63.50
2019-03-22T11:26:05.316Z,65.50
2019-03-22T11:31:10.600Z,60.58
2019-03-22T11:36:15.831Z,66.72
2019-03-22T11:41:21.128Z,61.73
2019-03-22T11:46:26.497Z,58.27
2019-03-22T11:51:31.777Z,60.17
2019-03-22T11:56:37.980Z,66.17
2019-03-22T12:01:43.638Z,63.73
2019-03-22T12:06:48.934Z,62.00
2019-03-22T12:11:54.524Z,61.30
2019-03-22T12:16:59.825Z,52.27
2019-03-22T12:22:05.427Z,54.35
2019-03-22T12:27:10.746Z,54.63
2019-03-22T12:32:16.107Z,52.80
2019-03-22T12:37:21.389Z,52.20
2019-03-22T12:42:26.716Z,50.63
2019-03-22T12:47:32.005Z,62.35
2019-03-22T12:52:37.289Z,55.53
2019-03-22T12:57:42.580Z,62.65
2019-03-22T13:02:47.933Z,54.03
2019-03-22T13:07:53.563Z,54.77
2019-03-22T13:12:58.780Z,59.42
2019-03-22T13:18:05.022Z,58.15
2019-03-22T13:23:10.395Z,60.83
2019-03-22T13:28:15.789Z,59.35
2019-03-22T13:33:21.427Z,63.00
2019-03-22T13:38:28.219Z,62.53
2019-03-22T13:43:33.616Z,59.77
2019-03-22T13:48:38.846Z,60.73
2019-03-22T13:53:45.196Z,64.60
2019-03-22T13:58:50.424Z,55.93
2019-03-22T14:03:55.739Z,56.73
2019-03-22T14:09:01.036Z,57.33
2019-03-22T14:14:07.743Z,56.70
2019-03-22T14:19:12.960Z,54.70
2019-03-22T14:24:19.158Z,54.93
2019-03-22T14:29:24.776Z,55.93
2019-03-22T14:34:30.254Z,54.38
2019-03-22T14:39:35.923Z,53.93
2019-03-22T14:44:41.435Z,55.75
2019-03-22T14:49:47.057Z,58.25
2019-03-22T14:54:53.728Z,57.80
2019-03-22T14:59:59.447Z,59.05
2019-03-22T15:05:07.252Z,55.48
2019-03-22T15:10:13.207Z,55.23
2019-03-22T15:15:31.948Z,43.30
2019-03-22T15:20:54.973Z,47.27
2019-03-22T15:26:18.211Z,47.70
2019-03-22T15:31:41.560Z,41.43
2019-03-22T15:37:10.576Z,41.77
2019-03-22T15:42:16.172Z,35.77
2019-03-22T15:47:21.800Z,39.73
2019-03-22T15:52:27.385Z,40.55
2019-03-22T15:57:34.213Z,38.40
2019-03-22T16:02:40.696Z,38.65
2019-03-22T16:07:47.062Z,35.70
2019-03-22T16:12:52.566Z,35.50
2019-03-22T16:17:58.182Z,37.38
2019-03-22T16:23:03.868Z,40.90
2019-03-22T16:28:09.322Z,40.40
2019-03-22T16:33:14.785Z,41.75
2019-03-22T16:38:20.288Z,42.08
2019-03-22T16:43:26.445Z,41.08
2019-03-22T16:48:32.087Z,38.80
2019-03-22T16:53:37.609Z,43.17
2019-03-22T16:58:42.904Z,41.18
2019-03-22T17:03:49.222Z,41.23
2019-03-22T17:08:55.437Z,41.90
2019-03-22T17:14:00.700Z,43.02
2019-03-22T17:19:06.293Z,42.75
2019-03-22T17:24:11.771Z,44.87
2019-03-22T17:29:16.978Z,43.97
2019-03-22T17:34:22.289Z,40.43
2019-03-22T17:39:27.508Z,45.95
2019-03-22T17:44:32.715Z,43.25
2019-03-22T17:49:47.569Z,44.77
2019-03-22T17:54:45.104Z,42.88
2019-03-22T17:59:50.314Z,45.60
2019-03-22T18:04:55.546Z,42.17
2019-03-22T18:10:00.785Z,43.95
2019-03-22T18:15:08.645Z,46.43
2019-03-22T18:20:14.166Z,44.97
2019-03-22T18:25:19.352Z,44.53
2019-03-22T18:30:24.589Z,48.83
2019-03-22T18:35:29.838Z,52.67
2019-03-22T18:40:35.446Z,45.33
2019-03-22T18:45:40.691Z,50.80
2019-03-22T18:50:55.949Z,54.03
2019-03-22T18:55:52.802Z,47.60
2019-03-22T19:00:58.085Z,57.40
2019-03-22T19:06:05.065Z,55.20
2019-03-22T19:11:10.276Z,55.70
2019-03-22T19:16:15.472Z,57.62
2019-03-22T19:21:20.796Z,55.83
2019-03-22T19:26:26.036Z,59.53
2019-03-22T19:31:31.324Z,59.50
2019-03-22T19:36:36.524Z,64.23
2019-03-22T19:41:41.775Z,60.57
2019-03-22T19:46:47.040Z,62.25
2019-03-22T19:51:52.275Z,69.83
2019-03-22T19:56:57.822Z,59.53
2019-03-22T20:02:03.116Z,69.90
2019-03-22T20:07:08.411Z,63.23
2019-03-22T20:12:13.728Z,65.70
2019-03-22T20:17:18.956Z,60.20
2019-03-22T20:22:24.198Z,66.00
2019-03-22T20:27:29.615Z,59.87
2019-03-22T20:32:34.983Z,61.88
2019-03-22T20:37:40.466Z,63.63
2019-03-22T20:42:45.737Z,67.37
2019-03-22T20:47:51.117Z,64.00
2019-03-22T20:52:56.355Z,62.40
2019-03-22T20:58:01.661Z,68.87
2019-03-22T21:03:07.037Z,63.85
2019-03-22T21:08:12.507Z,69.90
2019-03-22T21:13:17.732Z,69.23
2019-03-22T21:18:23.020Z,65.90
2019-03-22T21:23:35.934Z,67.37
2019-03-22T21:28:35.231Z,69.30
2019-03-22T21:33:40.849Z,66.70
2019-03-22T21:38:46.425Z,67.50
2019-03-22T21:43:51.751Z,67.83
2019-03-22T21:48:57.059Z,69.57
2019-03-22T21:54:02.293Z,59.73
2019-03-22T21:59:07.516Z,72.40
2019-03-22T22:04:12.745Z,66.77
2019-03-22T22:09:17.998Z,72.10
2019-03-22T22:14:23.201Z,66.73
2019-03-22T22:19:28.492Z,65.97
2019-03-22T22:24:33.712Z,67.27
2019-03-22T22:29:39.322Z,68.63
2019-03-22T22:34:44.528Z,77.80
2019-03-22T22:39:49.735Z,72.20
2019-03-22T22:44:54.960Z,75.57
2019-03-22T22:50:18.386Z,74.53
2019-03-22T22:55:23.684Z,78.25
2019-03-22T23:00:29.511Z,72.47
2019-03-22T23:05:36.376Z,78.73
2019-03-22T23:10:41.596Z,72.20
2019-03-22T23:15:46.908Z,81.10
2019-03-22T23:20:52.236Z,73.77
2019-03-22T23:25:57.432Z,82.13
2019-03-22T23:31:03.104Z,72.53
2019-03-22T23:36:19.570Z,82.45
2019-03-22T23:41:16.196Z,83.67
2019-03-22T23:46:21.379Z,75.10
2019-03-22T23:51:26.921Z,78.63
2019-03-22T23:56:32.141Z,82.50
